Time;durP1;ratioP1;P1;durP2;ratioP2;P2;SDS_P1;SDS_P2;PMS_P1;PMS_P2;Temp;Humidity;BMP_temperature;BMP_pressure;BME280_temperature;BME280_humidity;BME280_pressure;Samples;Min_cycle;Max_cycle;Signal;HPM_P1;HPM_P2
2022/06/20 00:02:30;;;;;;;0.90;0.60;;;23.90;60.60;;;;;;6269194;28;20228;-46
2022/06/20 00:05:36;;;;;;;0.75;0.75;;;23.90;60.60;;;;;;6273445;28;20047;-48
2022/06/20 00:08:37;;;;;;;0.93;0.70;;;23.80;60.50;;;;;;6248468;28;20097;-44
2022/06/20 00:11:45;;;;;;;1.33;1.00;;;23.90;60.50;;;;;;6283872;28;20160;-45
2022/06/20 00:14:50;;;;;;;0.63;0.50;;;23.90;60.50;;;;;;6272911;28;20152;-45
2022/06/20 00:17:53;;;;;;;0.88;0.80;;;23.90;60.50;;;;;;6284890;28;20075;-43
2022/06/20 00:20:55;;;;;;;0.80;0.60;;;23.80;60.40;;;;;;6284360;28;20143;-45
2022/06/20 00:23:57;;;;;;;0.60;0.50;;;23.90;60.50;;;;;;6276955;28;20048;-44
2022/06/20 00:26:58;;;;;;;1.13;0.85;;;23.90;60.40;;;;;;6283125;28;20043;-44
2022/06/20 00:30:02;;;;;;;1.10;0.63;;;23.70;60.20;;;;;;6278013;28;20138;-44
2022/06/20 00:33:05;;;;;;;0.77;0.70;;;23.90;60.30;;;;;;6270952;28;20043;-46
2022/06/20 00:36:07;;;;;;;0.85;0.70;;;23.80;60.20;;;;;;6260970;28;20044;-44
2022/06/20 00:39:11;;;;;;;0.80;0.70;;;23.80;60.10;;;;;;6281933;28;20039;-46
2022/06/20 00:42:13;;;;;;;0.50;0.50;;;23.70;60.10;;;;;;6272320;28;20156;-45
2022/06/20 00:45:16;;;;;;;1.10;0.70;;;23.80;60.10;;;;;;6266084;28;20044;-44
2022/06/20 00:48:25;;;;;;;0.77;0.55;;;23.90;60.30;;;;;;6276624;28;20138;-45
2022/06/20 00:51:35;;;;;;;1.10;0.75;;;23.80;60.10;;;;;;6279570;28;20044;-46
2022/06/20 00:54:41;;;;;;;0.60;0.50;;;23.70;60.00;;;;;;6271398;28;20117;-45
2022/06/20 00:57:48;;;;;;;0.60;0.60;;;23.80;60.00;;;;;;6283103;28;20044;-48
2022/06/20 01:00:51;;;;;;;0.80;0.70;;;23.70;60.00;;;;;;6281568;28;20061;-44
2022/06/20 01:03:55;;;;;;;1.08;0.80;;;23.70;60.00;;;;;;6277028;28;20526;-43
2022/06/20 01:06:58;;;;;;;1.00;0.90;;;23.70;60.00;;;;;;6270198;28;20048;-46
2022/06/20 01:10:01;;;;;;;1.10;0.70;;;23.70;60.00;;;;;;6284395;28;20154;-45
2022/06/20 01:13:06;;;;;;;0.70;0.63;;;23.60;59.90;;;;;;6275662;28;20159;-46
2022/06/20 01:16:22;;;;;;;0.82;0.82;;;23.70;59.80;;;;;;6279811;28;20212;-48
2022/06/20 01:19:42;;;;;;;0.85;0.80;;;23.70;59.80;;;;;;6271471;28;20067;-48
2022/06/20 01:22:55;;;;;;;0.80;0.77;;;23.60;59.70;;;;;;6276596;28;20164;-44
2022/06/20 01:26:07;;;;;;;0.68;0.68;;;23.70;59.80;;;;;;6278208;28;21243;-45
2022/06/20 01:29:11;;;;;;;0.73;0.60;;;23.60;59.80;;;;;;6278117;28;20182;-52
2022/06/20 01:32:13;;;;;;;1.00;0.80;;;23.70;59.90;;;;;;6278913;28;20067;-46
2022/06/20 01:37:23;;;;;;;1.00;0.80;;;23.60;59.80;;;;;;6273141;28;20185;-44
2022/06/20 01:38:39;;;;;;;0.73;0.73;;;23.60;60.00;;;;;;6276524;28;20087;-44
2022/06/20 01:45:01;;;;;;;1.08;0.90;;;23.60;59.70;;;;;;6268296;28;20081;-45
2022/06/20 01:48:06;;;;;;;1.15;0.73;;;23.60;59.70;;;;;;6259318;28;20039;-48
2022/06/20 01:51:14;;;;;;;0.73;0.70;;;23.60;59.70;;;;;;6272733;28;20659;-43
2022/06/20 01:54:17;;;;;;;0.80;0.70;;;23.60;59.70;;;;;;6253777;28;20120;-44
2022/06/20 01:57:21;;;;;;;0.80;0.80;;;23.60;59.80;;;;;;6270595;28;20158;-45
2022/06/20 02:00:24;;;;;;;1.25;1.02;;;23.60;59.70;;;;;;6273487;28;20039;-44
2022/06/20 02:03:26;;;;;;;1.67;0.90;;;23.50;59.70;;;;;;6259435;28;20043;-47
2022/06/20 02:06:29;;;;;;;1.13;0.93;;;23.60;59.80;;;;;;6268349;28;20335;-45
2022/06/20 02:09:31;;;;;;;0.80;0.70;;;23.40;59.80;;;;;;6272945;28;20392;-44
2022/06/20 02:12:35;;;;;;;1.00;0.90;;;23.60;59.90;;;;;;6266620;28;20474;-46
2022/06/20 02:15:38;;;;;;;0.80;0.80;;;23.60;60.00;;;;;;6267879;28;20055;-45
2022/06/20 02:18:42;;;;;;;0.98;0.80;;;23.40;60.60;;;;;;6276111;28;20273;-48
2022/06/20 02:21:46;;;;;;;1.00;0.90;;;23.50;60.10;;;;;;6272367;28;20048;-46
2022/06/20 02:24:53;;;;;;;1.35;1.00;;;23.50;60.10;;;;;;6274408;28;20146;-45
2022/06/20 02:27:59;;;;;;;1.00;0.93;;;23.40;60.10;;;;;;6292826;28;20056;-46
2022/06/20 02:31:02;;;;;;;1.08;0.98;;;23.60;60.30;;;;;;6287507;28;20079;-45
2022/06/20 02:34:03;;;;;;;0.88;0.88;;;23.50;60.40;;;;;;6252593;28;20075;-43
2022/06/20 02:37:13;;;;;;;1.05;1.00;;;23.60;60.50;;;;;;6272466;28;20302;-47
2022/06/20 02:40:17;;;;;;;1.13;0.90;;;23.50;60.60;;;;;;6265163;28;20146;-46
2022/06/20 02:43:25;;;;;;;1.10;0.95;;;23.40;60.50;;;;;;6264911;28;20075;-48
2022/06/20 02:46:31;;;;;;;0.98;0.93;;;23.50;60.70;;;;;;6261660;28;20395;-47
2022/06/20 02:49:35;;;;;;;1.38;1.20;;;23.50;60.70;;;;;;6278071;28;20079;-45
2022/06/20 02:52:42;;;;;;;1.45;1.25;;;23.40;60.70;;;;;;6271308;28;20142;-43
2022/06/20 02:55:45;;;;;;;0.98;0.90;;;23.50;60.80;;;;;;6256603;28;20072;-46
2022/06/20 02:58:51;;;;;;;1.00;0.90;;;23.50;60.90;;;;;;6274382;28;20114;-45
2022/06/20 03:02:01;;;;;;;1.30;1.20;;;23.40;60.80;;;;;;6272452;28;20975;-45
2022/06/20 03:05:03;;;;;;;1.70;1.00;;;23.40;60.90;;;;;;6258653;28;20668;-45
2022/06/20 03:08:05;;;;;;;1.20;1.10;;;23.40;60.90;;;;;;6274838;28;21063;-48
2022/06/20 03:11:11;;;;;;;2.15;1.50;;;23.40;61.00;;;;;;6275579;28;20059;-45
2022/06/20 03:14:15;;;;;;;1.90;1.20;;;23.50;61.10;;;;;;6254779;28;20985;-44
2022/06/20 03:17:21;;;;;;;1.10;0.98;;;23.50;61.10;;;;;;6272663;28;20043;-44
2022/06/20 03:20:25;;;;;;;1.00;0.80;;;23.40;61.10;;;;;;6260657;28;20472;-45
2022/06/20 03:23:30;;;;;;;1.10;1.00;;;23.40;61.20;;;;;;6264388;28;20545;-45
2022/06/20 03:26:32;;;;;;;1.98;1.30;;;23.40;61.40;;;;;;6269245;28;20578;-44
2022/06/20 03:29:37;;;;;;;2.15;1.10;;;23.40;61.50;;;;;;6271059;28;20444;-49
2022/06/20 03:32:39;;;;;;;1.27;1.02;;;23.40;61.50;;;;;;6262316;28;20035;-45
2022/06/20 03:35:45;;;;;;;1.70;1.60;;;23.40;61.60;;;;;;6265687;28;20494;-45
2022/06/20 03:38:47;;;;;;;1.20;1.10;;;23.40;61.70;;;;;;6271795;28;20210;-47
2022/06/20 03:41:49;;;;;;;1.40;1.30;;;23.40;61.70;;;;;;6270572;28;20110;-46
2022/06/20 03:44:56;;;;;;;1.20;1.10;;;23.40;61.80;;;;;;6257321;28;20590;-46
2022/06/20 03:48:04;;;;;;;1.20;1.10;;;23.20;61.70;;;;;;6274136;28;20094;-45
2022/06/20 03:51:11;;;;;;;1.13;1.02;;;23.30;61.80;;;;;;6269938;28;20039;-49
2022/06/20 03:54:19;;;;;;;1.23;1.13;;;23.30;61.80;;;;;;6255279;28;20322;-46
2022/06/20 03:57:27;;;;;;;1.30;1.20;;;23.30;61.80;;;;;;6270817;28;20499;-46
2022/06/20 04:00:35;;;;;;;0.90;0.90;;;23.30;61.80;;;;;;6272747;28;20166;-46
2022/06/20 04:03:42;;;;;;;1.05;1.00;;;23.20;61.80;;;;;;6253003;28;20808;-44
2022/06/20 04:06:49;;;;;;;1.10;1.00;;;23.40;62.00;;;;;;6277172;28;20039;-45
2022/06/20 04:13:18;;;;;;;1.30;1.20;;;23.30;61.90;;;;;;6261972;28;20048;-47
2022/06/20 04:16:24;;;;;;;1.58;1.20;;;23.30;62.00;;;;;;6265367;28;20126;-44
2022/06/20 04:19:30;;;;;;;1.30;1.20;;;23.40;62.70;;;;;;6278698;28;21486;-45
2022/06/20 04:22:35;;;;;;;1.27;1.00;;;23.50;62.20;;;;;;6284974;28;20052;-50
2022/06/20 04:25:41;;;;;;;1.20;1.10;;;23.30;62.70;;;;;;6278439;28;20158;-48
2022/06/20 04:28:49;;;;;;;1.75;1.30;;;23.30;62.10;;;;;;6284858;28;20807;-45
2022/06/20 04:31:54;;;;;;;1.27;1.17;;;23.30;62.20;;;;;;6285265;28;20044;-46
2022/06/20 04:35:00;;;;;;;1.60;1.20;;;23.30;62.30;;;;;;6254392;28;20051;-45
2022/06/20 04:38:09;;;;;;;1.20;1.10;;;23.30;62.30;;;;;;6268718;28;20345;-46
2022/06/20 04:41:17;;;;;;;1.25;1.15;;;23.30;62.30;;;;;;6265521;28;20690;-44
2022/06/20 04:44:23;;;;;;;1.30;1.20;;;23.30;62.40;;;;;;6256029;28;20050;-46
2022/06/20 04:47:37;;;;;;;1.17;1.08;;;23.30;62.40;;;;;;6270049;28;20558;-46
2022/06/20 04:50:44;;;;;;;1.60;1.25;;;23.20;62.50;;;;;;6262623;28;20051;-48
2022/06/20 04:53:47;;;;;;;1.40;1.30;;;23.30;62.50;;;;;;6255249;28;20472;-46
2022/06/20 04:56:53;;;;;;;1.17;1.00;;;23.30;62.70;;;;;;6269168;28;20077;-48
2022/06/20 04:59:59;;;;;;;1.20;1.10;;;23.30;62.70;;;;;;6271162;28;20449;-43
2022/06/20 05:03:01;;;;;;;1.33;1.23;;;23.30;62.80;;;;;;6256425;28;20258;-45
2022/06/20 05:06:05;;;;;;;1.25;1.15;;;23.30;62.90;;;;;;6265467;28;20051;-47
2022/06/20 05:09:13;;;;;;;0.98;0.98;;;23.30;63.00;;;;;;6282978;28;20032;-45
2022/06/20 05:12:21;;;;;;;1.27;1.17;;;23.30;63.10;;;;;;6267474;28;20047;-46
2022/06/20 05:15:27;;;;;;;1.25;1.08;;;23.30;63.10;;;;;;6273058;28;20047;-48
2022/06/20 05:18:34;;;;;;;0.85;0.82;;;23.30;63.20;;;;;;6280518;28;20158;-45
2022/06/20 05:21:41;;;;;;;1.08;0.98;;;23.30;63.30;;;;;;6273875;28;21079;-44
2022/06/20 05:24:45;;;;;;;1.10;1.00;;;23.30;63.40;;;;;;6270326;28;20040;-44
2022/06/20 05:27:52;;;;;;;1.42;1.33;;;23.30;63.50;;;;;;6282446;28;20155;-44
2022/06/20 05:30:55;;;;;;;1.10;1.00;;;23.30;63.50;;;;;;6266294;28;20393;-43
2022/06/20 05:34:03;;;;;;;1.10;1.00;;;23.30;63.60;;;;;;6271342;28;20046;-46
2022/06/20 05:37:10;;;;;;;1.08;0.98;;;23.30;63.60;;;;;;6282559;28;20039;-48
2022/06/20 05:40:19;;;;;;;1.23;1.13;;;23.30;63.70;;;;;;6280860;28;20068;-45
2022/06/20 05:43:20;;;;;;;1.27;1.17;;;23.30;63.80;;;;;;6272587;28;20202;-44
2022/06/20 05:46:26;;;;;;;0.70;0.70;;;23.30;63.80;;;;;;6280190;28;20031;-46
2022/06/20 05:49:33;;;;;;;0.95;0.82;;;23.30;63.90;;;;;;6275271;28;20075;-46
2022/06/20 05:52:35;;;;;;;1.15;1.08;;;23.20;63.90;;;;;;6277199;28;21824;-44
2022/06/20 05:55:41;;;;;;;0.88;0.88;;;23.30;64.00;;;;;;6275534;28;20043;-46
2022/06/20 05:58:45;;;;;;;0.90;0.90;;;23.30;64.00;;;;;;6261111;28;20048;-49
2022/06/20 06:01:47;;;;;;;0.80;0.70;;;23.40;64.10;;;;;;6279781;28;20051;-45
2022/06/20 06:04:55;;;;;;;1.25;1.00;;;23.30;64.00;;;;;;6268503;28;20162;-50
2022/06/20 06:08:02;;;;;;;1.20;0.85;;;23.30;64.10;;;;;;6279199;28;20146;-46
2022/06/20 06:11:12;;;;;;;0.77;0.77;;;23.40;64.10;;;;;;6263687;28;21496;-47
2022/06/20 06:14:22;;;;;;;1.00;0.90;;;23.50;64.20;;;;;;6259363;28;20113;-47
2022/06/20 06:17:27;;;;;;;1.05;0.95;;;23.40;64.20;;;;;;6264180;28;20174;-47
2022/06/20 06:20:46;;;;;;;1.00;0.80;;;23.40;64.20;;;;;;6249465;28;20056;-48
2022/06/20 06:23:49;;;;;;;0.85;0.85;;;23.40;64.20;;;;;;6262389;28;20158;-45
2022/06/20 06:26:54;;;;;;;1.20;1.08;;;23.40;64.20;;;;;;6256907;28;20043;-45
2022/06/20 06:30:00;;;;;;;0.98;0.90;;;23.40;64.30;;;;;;6249580;28;20047;-44
2022/06/20 06:33:07;;;;;;;1.27;0.93;;;23.40;64.30;;;;;;6242313;28;20048;-48
2022/06/20 06:36:14;;;;;;;1.05;0.77;;;23.40;64.40;;;;;;6247674;28;20079;-45
2022/06/20 06:39:23;;;;;;;1.20;1.10;;;23.40;64.40;;;;;;6240482;28;20056;-46
2022/06/20 06:42:25;;;;;;;1.40;1.20;;;23.30;64.20;;;;;;6243608;28;20031;-50
2022/06/20 06:45:33;;;;;;;1.77;1.00;;;23.40;64.30;;;;;;6219008;28;20047;-45
2022/06/20 06:48:41;;;;;;;2.58;1.52;;;23.50;64.40;;;;;;6222574;28;20771;-49
2022/06/20 06:51:51;;;;;;;2.70;1.40;;;23.40;64.50;;;;;;6214112;28;21909;-45
2022/06/20 06:54:58;;;;;;;1.98;1.77;;;23.50;64.70;;;;;;6194881;28;20048;-47
2022/06/20 06:58:07;;;;;;;2.38;1.55;;;23.50;64.80;;;;;;6198805;28;21369;-46
2022/06/20 07:01:14;;;;;;;4.03;1.80;;;23.50;65.00;;;;;;6183723;28;20047;-44
2022/06/20 07:04:20;;;;;;;1.80;1.70;;;23.50;64.90;;;;;;6171267;28;20178;-45
2022/06/20 07:07:28;;;;;;;1.92;1.42;;;23.60;64.90;;;;;;6099956;28;20047;-45
2022/06/20 07:10:36;;;;;;;1.30;1.20;;;23.60;64.90;;;;;;6133249;28;20055;-47
2022/06/20 07:13:41;;;;;;;3.20;1.77;;;23.70;64.90;;;;;;6156218;28;20264;-47
2022/06/20 07:16:51;;;;;;;2.10;1.65;;;23.80;64.70;;;;;;6143248;28;20146;-44
2022/06/20 07:19:53;;;;;;;4.28;1.60;;;23.80;64.70;;;;;;6138331;28;20635;-47
2022/06/20 07:22:57;;;;;;;1.60;1.33;;;23.80;64.60;;;;;;6138975;28;20044;-47
2022/06/20 07:25:59;;;;;;;2.30;1.27;;;23.90;64.50;;;;;;6126241;28;20044;-52
2022/06/20 07:29:07;;;;;;;3.15;1.52;;;24.00;64.50;;;;;;6129281;28;20046;-46
2022/06/20 07:32:13;;;;;;;3.80;2.03;;;23.90;64.30;;;;;;6128973;28;20253;-47
2022/06/20 07:35:18;;;;;;;4.03;2.45;;;24.00;64.30;;;;;;6148076;28;23107;-49
2022/06/20 07:38:22;;;;;;;7.78;2.50;;;24.00;64.30;;;;;;6114058;28;20151;-51
2022/06/20 07:41:38;;;;;;;2.97;1.70;;;24.00;64.40;;;;;;6139570;28;20040;-45
2022/06/20 07:44:42;;;;;;;4.40;2.30;;;24.10;64.50;;;;;;6147885;28;20043;-50
2022/06/20 07:47:50;;;;;;;4.32;1.95;;;24.10;64.40;;;;;;6146565;28;20170;-51
2022/06/20 07:50:57;;;;;;;3.58;1.92;;;24.10;64.40;;;;;;6125025;28;20055;-52
2022/06/20 07:54:02;;;;;;;2.28;1.98;;;24.20;64.40;;;;;;6119563;28;20433;-52
2022/06/20 07:57:11;;;;;;;2.63;2.28;;;24.30;64.40;;;;;;6133272;28;20174;-53
2022/06/20 08:00:17;;;;;;;3.30;1.90;;;24.10;64.00;;;;;;6130016;28;20036;-52
2022/06/20 08:03:25;;;;;;;5.45;2.22;;;24.30;64.00;;;;;;6094860;28;20044;-52
2022/06/20 08:06:33;;;;;;;4.18;2.40;;;24.30;64.00;;;;;;6134667;28;20051;-50
2022/06/20 08:09:40;;;;;;;4.88;1.90;;;24.40;64.00;;;;;;6095541;28;20036;-54
2022/06/20 08:12:48;;;;;;;5.82;2.63;;;24.40;64.00;;;;;;6104276;28;20042;-50
2022/06/20 08:15:54;;;;;;;4.00;2.53;;;24.40;64.10;;;;;;6144309;27;20295;-54
2022/06/20 08:18:57;;;;;;;4.85;2.75;;;24.40;63.90;;;;;;6126349;28;21732;-52
2022/06/20 08:22:04;;;;;;;2.90;2.40;;;24.50;63.90;;;;;;6109997;28;20044;-54
2022/06/20 08:25:12;;;;;;;3.13;2.08;;;24.50;63.80;;;;;;6084866;28;20073;-56
2022/06/20 08:28:19;;;;;;;2.92;2.60;;;24.60;63.80;;;;;;6126757;28;20166;-52
2022/06/20 08:31:30;;;;;;;2.17;1.98;;;24.70;63.60;;;;;;6091171;28;22004;-50
2022/06/20 08:34:37;;;;;;;2.53;2.03;;;24.70;63.50;;;;;;6101314;28;20137;-55
2022/06/20 08:37:44;;;;;;;3.33;2.05;;;24.70;63.40;;;;;;6099568;28;20249;-53
2022/06/20 08:41:04;;;;;;;2.22;1.90;;;24.70;63.20;;;;;;6119028;28;20047;-52
2022/06/20 08:44:29;;;;;;;2.35;1.83;;;24.80;63.30;;;;;;6094663;28;20051;-51
2022/06/20 08:47:58;;;;;;;3.08;1.80;;;24.90;63.20;;;;;;6122064;28;20050;-49
2022/06/20 08:51:20;;;;;;;1.95;1.75;;;24.90;63.20;;;;;;6128442;28;20288;-55
2022/06/20 08:54:50;;;;;;;3.60;2.20;;;24.90;63.00;;;;;;6147501;27;20047;-54
2022/06/20 08:58:01;;;;;;;2.03;1.83;;;25.00;63.00;;;;;;6125614;28;20040;-54
2022/06/20 09:01:24;;;;;;;3.40;2.38;;;25.00;62.90;;;;;;6101190;28;20186;-54
2022/06/20 09:04:44;;;;;;;2.30;1.80;;;25.00;62.90;;;;;;6111700;28;20158;-55
2022/06/20 09:08:06;;;;;;;2.70;2.07;;;25.10;63.10;;;;;;6116582;28;20047;-56
2022/06/20 09:11:22;;;;;;;2.13;1.92;;;25.10;62.70;;;;;;6130310;28;21214;-52
2022/06/20 09:14:38;;;;;;;2.72;2.40;;;25.20;62.80;;;;;;6129524;28;20048;-52
2022/06/20 09:17:53;;;;;;;4.28;3.10;;;25.20;62.60;;;;;;6100145;28;20046;-52
2022/06/20 09:21:37;;;;;;;3.65;2.67;;;25.30;62.50;;;;;;6082848;28;20047;-52
2022/06/20 09:24:56;;;;;;;4.17;2.73;;;25.30;62.30;;;;;;6080976;28;21738;-52
2022/06/20 09:28:10;;;;;;;4.15;3.45;;;25.30;62.10;;;;;;6077092;28;23256;-53
2022/06/20 09:31:25;;;;;;;7.32;3.92;;;25.40;62.10;;;;;;6101436;28;21348;-54
2022/06/20 09:34:50;;;;;;;3.75;3.30;;;25.40;62.00;;;;;;6086557;28;20043;-52
2022/06/20 09:38:18;;;;;;;6.40;3.72;;;25.40;61.90;;;;;;6125248;27;20080;-53
2022/06/20 09:41:28;;;;;;;5.05;3.88;;;25.30;61.70;;;;;;6119785;28;20091;-51
2022/06/20 09:44:40;;;;;;;5.57;4.20;;;25.40;61.70;;;;;;6102513;28;20174;-48
2022/06/20 09:47:47;;;;;;;;;;;25.30;61.50;;;;;;6110038;28;20051;-53
2022/06/20 09:50:59;;;;;;;5.10;4.00;;;25.40;61.50;;;;;;6102381;28;19927;-51
2022/06/20 09:54:09;;;;;;;5.15;3.67;;;25.40;61.40;;;;;;6091291;28;20048;-51
2022/06/20 09:57:19;;;;;;;5.00;4.07;;;25.40;61.20;;;;;;6083510;28;20040;-53
2022/06/20 10:00:35;;;;;;;6.70;4.63;;;25.40;61.10;;;;;;6104081;28;20305;-47
2022/06/20 10:03:44;;;;;;;6.13;4.43;;;25.40;61.60;;;;;;6082048;28;20035;-51
2022/06/20 10:06:58;;;;;;;7.78;5.88;;;25.40;60.80;;;;;;6107823;28;20086;-51
2022/06/20 10:10:08;;;;;;;7.90;5.00;;;25.40;60.60;;;;;;6104882;28;20040;-48
2022/06/20 10:13:15;;;;;;;11.48;5.85;;;25.30;60.50;;;;;;6104053;28;20040;-51
2022/06/20 10:16:25;;;;;;;12.82;7.05;;;25.40;60.60;;;;;;6125352;28;21357;-53
2022/06/20 10:19:42;;;;;;;8.18;5.43;;;25.20;60.20;;;;;;6105127;28;20051;-53
2022/06/20 10:22:52;;;;;;;7.97;4.88;;;25.20;60.20;;;;;;6099190;28;20040;-51
2022/06/20 10:26:22;;;;;;;5.43;3.40;;;25.20;60.00;;;;;;6105720;28;20044;-51
2022/06/20 10:29:30;;;;;;;4.88;3.25;;;25.20;59.90;;;;;;6130053;28;20120;-51
2022/06/20 10:32:49;;;;;;;9.15;4.93;;;25.20;59.80;;;;;;6140073;28;21187;-51
2022/06/20 10:35:58;;;;;;;8.10;4.82;;;25.20;59.60;;;;;;6146651;28;20132;-49
2022/06/20 10:39:09;;;;;;;8.10;4.93;;;25.30;59.50;;;;;;6141221;28;20119;-51
2022/06/20 10:42:30;;;;;;;7.35;3.80;;;25.20;59.30;;;;;;6166664;28;20122;-53
2022/06/20 10:45:35;;;;;;;6.57;3.85;;;25.20;59.20;;;;;;6180634;28;21249;-52
2022/06/20 10:48:57;;;;;;;4.90;3.40;;;25.30;59.30;;;;;;6178346;28;20116;-50
2022/06/20 10:52:10;;;;;;;3.65;2.60;;;25.30;59.10;;;;;;6187469;28;20046;-46
2022/06/20 10:55:28;;;;;;;4.25;3.00;;;25.30;59.00;;;;;;6190574;28;20051;-49
2022/06/20 10:58:55;;;;;;;3.70;2.50;;;25.20;58.90;;;;;;6199402;27;20174;-49
2022/06/20 11:02:03;;;;;;;3.67;2.70;;;25.30;58.90;;;;;;6173256;28;20048;-50
2022/06/20 11:05:15;;;;;;;3.50;2.25;;;25.30;58.90;;;;;;6209534;28;20078;-49
2022/06/20 11:08:29;;;;;;;2.70;2.50;;;25.30;58.80;;;;;;6199391;28;20067;-49
2022/06/20 11:11:43;;;;;;;3.45;2.30;;;25.30;58.80;;;;;;6208268;28;20068;-49
2022/06/20 11:14:52;;;;;;;3.63;2.17;;;25.30;58.80;;;;;;6171649;28;20059;-47
2022/06/20 11:18:00;;;;;;;3.72;2.47;;;25.20;58.80;;;;;;6192628;28;20040;-46
2022/06/20 11:21:10;;;;;;;4.20;2.72;;;25.20;58.80;;;;;;6166570;28;20118;-51
2022/06/20 11:24:28;;;;;;;2.80;2.40;;;25.30;58.90;;;;;;6177215;28;21413;-52
2022/06/20 11:27:47;;;;;;;3.33;2.50;;;25.20;58.70;;;;;;6200588;28;20040;-50
2022/06/20 11:30:58;;;;;;;3.17;2.30;;;25.20;58.80;;;;;;6198874;28;20067;-48
2022/06/20 11:34:17;;;;;;;4.18;2.40;;;25.20;58.70;;;;;;6178341;28;20102;-47
2022/06/20 11:37:30;;;;;;;2.50;2.10;;;25.30;58.70;;;;;;6188867;28;20054;-48
2022/06/20 11:40:43;;;;;;;2.33;2.05;;;25.20;58.70;;;;;;6169501;28;20198;-50
2022/06/20 11:44:17;;;;;;;3.50;1.85;;;25.20;58.80;;;;;;6155757;28;20100;-50
2022/06/20 11:47:32;;;;;;;2.38;1.67;;;25.20;58.90;;;;;;6177130;28;20219;-48
2022/06/20 11:50:40;;;;;;;2.88;1.92;;;25.20;58.80;;;;;;6136760;28;20721;-49
2022/06/20 11:53:53;;;;;;;2.72;1.92;;;25.20;58.80;;;;;;6170718;28;20242;-47
2022/06/20 11:57:02;;;;;;;2.47;2.00;;;25.20;58.80;;;;;;6132581;28;20044;-49
2022/06/20 12:00:13;;;;;;;3.08;2.20;;;25.20;58.80;;;;;;6130257;28;21031;-49
2022/06/20 12:03:24;;;;;;;7.10;2.50;;;25.20;58.90;;;;;;6070446;28;20052;-50
2022/06/20 12:06:31;;;;;;;3.60;2.38;;;25.20;58.90;;;;;;5987038;28;20043;-49
2022/06/20 12:09:43;;;;;;;3.78;2.40;;;25.30;58.90;;;;;;6069674;27;21055;-49
2022/06/20 12:12:51;;;;;;;2.58;2.38;;;25.30;58.80;;;;;;6081780;28;20071;-48
2022/06/20 12:16:02;;;;;;;2.67;2.20;;;25.30;58.70;;;;;;6108065;27;20130;-52
2022/06/20 12:26:00;;;;;;;2.05;1.60;;;25.50;58.60;;;;;;6104918;28;20079;-53
2022/06/20 12:29:09;;;;;;;3.55;1.88;;;25.40;58.40;;;;;;6113384;28;20055;-51
2022/06/20 12:32:17;;;;;;;2.97;2.03;;;25.40;58.30;;;;;;6076527;28;20047;-48
2022/06/20 12:35:31;;;;;;;2.22;1.85;;;25.50;58.30;;;;;;6086872;28;21563;-48
2022/06/20 12:38:39;;;;;;;2.90;2.03;;;25.40;58.20;;;;;;6096692;28;20127;-49
2022/06/20 12:41:45;;;;;;;2.22;2.03;;;25.50;58.20;;;;;;6091815;28;20043;-52
2022/06/20 12:44:57;;;;;;;2.65;2.00;;;25.50;58.20;;;;;;6102646;28;20040;-50
2022/06/20 12:48:15;;;;;;;2.58;1.70;;;25.50;58.30;;;;;;6089469;28;20048;-48
2022/06/20 12:51:25;;;;;;;2.00;1.80;;;25.50;58.10;;;;;;6120152;28;22941;-51
2022/06/20 12:54:44;;;;;;;2.25;2.05;;;25.40;58.00;;;;;;6121938;28;20466;-50
2022/06/20 12:58:14;;;;;;;2.22;2.00;;;25.50;58.00;;;;;;6106811;28;20142;-50
2022/06/20 13:01:24;;;;;;;1.85;1.70;;;25.50;58.10;;;;;;6098563;28;22147;-44
2022/06/20 13:04:51;;;;;;;3.35;1.65;;;25.40;58.10;;;;;;6085951;28;20430;-46
2022/06/20 13:08:11;;;;;;;1.95;1.83;;;25.50;58.10;;;;;;6125056;28;20083;-50
2022/06/20 13:11:25;;;;;;;2.53;1.70;;;25.60;58.30;;;;;;6112035;28;21389;-49
2022/06/20 13:15:07;;;;;;;2.20;1.83;;;25.50;57.90;;;;;;6115667;28;20858;-52
2022/06/20 13:18:41;;;;;;;3.22;2.30;;;25.60;57.90;;;;;;6073910;28;20108;-47
2022/06/20 13:21:48;;;;;;;2.60;1.85;;;25.60;57.80;;;;;;6090690;28;22225;-49
2022/06/20 13:25:01;;;;;;;2.55;1.65;;;25.70;57.70;;;;;;6105472;28;20166;-50
2022/06/20 13:28:13;;;;;;;3.95;1.75;;;25.60;57.50;;;;;;6115759;28;20043;-53
2022/06/20 13:31:18;;;;;;;4.35;1.77;;;25.70;57.60;;;;;;6092299;28;22098;-50
2022/06/20 13:34:24;;;;;;;3.05;2.13;;;25.70;57.40;;;;;;6082924;28;20044;-54
2022/06/20 13:37:40;;;;;;;1.95;1.60;;;25.80;57.40;;;;;;6098372;28;20063;-50
2022/06/20 13:40:49;;;;;;;2.00;1.77;;;25.50;57.00;;;;;;6094623;28;21031;-54
2022/06/20 13:43:59;;;;;;;2.22;1.80;;;25.80;57.10;;;;;;6088600;28;20109;-54
2022/06/20 13:47:09;;;;;;;1.90;1.55;;;25.70;56.90;;;;;;6083052;28;22836;-55
2022/06/20 13:50:20;;;;;;;2.38;1.38;;;25.20;56.70;;;;;;6078212;28;20233;-50
2022/06/20 13:53:29;;;;;;;2.83;1.80;;;25.70;56.90;;;;;;6095007;28;20129;-54
2022/06/20 13:56:35;;;;;;;1.90;1.70;;;25.80;57.00;;;;;;6086315;28;20119;-50
2022/06/20 13:59:50;;;;;;;3.15;1.80;;;25.80;57.00;;;;;;6061143;28;20257;-49
2022/06/20 14:03:11;;;;;;;2.38;1.58;;;25.70;56.90;;;;;;6075932;28;20054;-53
2022/06/20 14:06:22;;;;;;;2.50;1.65;;;25.60;56.90;;;;;;6074380;28;20841;-51
2022/06/20 14:09:27;;;;;;;4.97;2.10;;;25.60;56.90;;;;;;6082444;28;20048;-49
2022/06/20 14:12:34;;;;;;;3.83;1.85;;;25.60;56.90;;;;;;6057738;28;20043;-47
2022/06/20 14:15:38;;;;;;;2.70;1.90;;;25.60;56.90;;;;;;6077859;28;21180;-48
2022/06/20 14:18:47;;;;;;;2.25;1.80;;;25.70;56.90;;;;;;6069707;28;20042;-49
2022/06/20 14:21:52;;;;;;;5.15;2.50;;;25.70;56.80;;;;;;6076550;28;20726;-50
2022/06/20 14:24:55;;;;;;;2.38;2.13;;;25.70;56.70;;;;;;6078070;28;20043;-49
2022/06/20 14:27:58;;;;;;;3.08;2.10;;;25.70;56.60;;;;;;6058533;28;20051;-55
2022/06/20 14:31:05;;;;;;;2.28;1.60;;;25.90;56.70;;;;;;6117329;28;20166;-49
2022/06/20 14:34:15;;;;;;;2.40;1.80;;;25.60;56.50;;;;;;6135635;28;20048;-54
2022/06/20 14:37:18;;;;;;;3.28;1.63;;;25.70;56.70;;;;;;6076344;28;20722;-51
2022/06/20 14:40:25;;;;;;;2.60;1.40;;;25.70;56.70;;;;;;6123659;28;20036;-53
2022/06/20 14:43:37;;;;;;;2.58;1.67;;;25.70;56.70;;;;;;6123635;28;20170;-54
2022/06/20 14:46:49;;;;;;;2.08;1.27;;;25.70;56.80;;;;;;6100178;28;20077;-54
2022/06/20 14:50:03;;;;;;;1.65;1.48;;;25.70;56.80;;;;;;6124565;28;20074;-53
2022/06/20 14:53:42;;;;;;;1.40;1.30;;;25.70;56.80;;;;;;6104963;28;20071;-53
2022/06/20 14:56:49;;;;;;;2.47;1.60;;;25.50;56.70;;;;;;6105700;28;20043;-52
2022/06/20 15:00:01;;;;;;;2.80;1.50;;;25.80;56.90;;;;;;6107089;28;20069;-54
2022/06/20 15:03:17;;;;;;;;;;;25.60;56.70;;;;;;6086513;28;20180;-52
2022/06/20 15:06:24;;;;;;;2.38;1.60;;;25.70;56.90;;;;;;6121636;28;20070;-53
2022/06/20 15:09:30;;;;;;;2.30;1.40;;;25.70;56.70;;;;;;6091533;28;20090;-50
2022/06/20 15:12:40;;;;;;;1.70;1.45;;;25.60;56.50;;;;;;6105804;28;20048;-52
2022/06/20 15:15:45;;;;;;;1.58;1.25;;;25.60;56.40;;;;;;6101326;28;20768;-53
2022/06/20 15:18:52;;;;;;;1.55;1.33;;;25.70;56.50;;;;;;6123280;28;20035;-54
2022/06/20 15:21:59;;;;;;;1.50;1.40;;;25.70;56.50;;;;;;6134295;28;20047;-53
2022/06/20 15:25:13;;;;;;;1.75;1.50;;;25.60;56.50;;;;;;6147510;28;20044;-52
2022/06/20 15:28:18;;;;;;;2.55;1.67;;;25.60;56.40;;;;;;6118501;28;20819;-50
2022/06/20 15:31:29;;;;;;;2.50;1.70;;;25.60;56.60;;;;;;6104832;28;20040;-51
2022/06/20 15:34:34;;;;;;;1.60;1.20;;;25.60;56.30;;;;;;6126757;28;20167;-51
2022/06/20 15:37:39;;;;;;;2.38;1.20;;;25.60;56.40;;;;;;6112036;28;20634;-52
2022/06/20 15:40:45;;;;;;;2.28;1.40;;;25.60;56.40;;;;;;6137548;28;20146;-56
2022/06/20 15:43:53;;;;;;;2.22;2.03;;;25.60;56.30;;;;;;6135862;27;20117;-53
2022/06/20 15:47:09;;;;;;;1.40;1.25;;;25.60;56.30;;;;;;6106355;28;20066;-55
2022/06/20 15:50:22;;;;;;;1.90;1.30;;;25.70;56.40;;;;;;6137261;28;20159;-47
2022/06/20 15:53:31;;;;;;;4.53;2.33;;;25.70;56.30;;;;;;6082406;28;20044;-50
2022/06/20 15:56:41;;;;;;;2.95;1.88;;;25.60;56.20;;;;;;6142711;28;20048;-51
2022/06/20 16:00:11;;;;;;;2.00;1.73;;;25.70;56.20;;;;;;6143942;28;20087;-56
2022/06/20 16:03:35;;;;;;;2.75;1.75;;;25.70;56.30;;;;;;6159760;28;20120;-49
2022/06/20 16:06:46;;;;;;;1.42;1.30;;;25.70;55.50;;;;;;6174572;28;20044;-52
2022/06/20 16:10:02;;;;;;;2.10;1.60;;;25.70;56.00;;;;;;6180567;28;20050;-50
2022/06/20 16:13:07;;;;;;;2.15;1.60;;;25.70;56.00;;;;;;6183423;28;20059;-58
2022/06/20 16:16:13;;;;;;;1.27;1.13;;;25.70;55.90;;;;;;6176408;28;20032;-58
2022/06/20 16:19:20;;;;;;;1.95;1.23;;;25.80;55.90;;;;;;6186950;28;20170;-49
2022/06/20 16:22:23;;;;;;;1.70;1.60;;;25.80;55.80;;;;;;6159729;28;20162;-48
2022/06/20 16:25:33;;;;;;;1.42;1.20;;;25.80;55.80;;;;;;6178449;28;20043;-52
2022/06/20 16:28:36;;;;;;;1.88;1.33;;;25.80;55.90;;;;;;6148602;28;20775;-58
2022/06/20 16:31:49;;;;;;;2.22;1.20;;;25.80;55.90;;;;;;6172766;28;20090;-49
2022/06/20 16:34:53;;;;;;;1.60;1.30;;;25.80;55.80;;;;;;6178273;28;20221;-51
2022/06/20 16:38:00;;;;;;;3.47;1.50;;;25.80;55.80;;;;;;6191631;28;20051;-48
2022/06/20 16:41:09;;;;;;;2.40;1.42;;;25.80;55.70;;;;;;6165459;28;21789;-51